Saint Petersburg, FL (33715)

2:17 AM EDT on September 03, 2015 (GMT -0400)
Tierra Verde | | Change Station
CLOSE
Current Station
Personal Weather Station
Location: Saint Petersburg, FL
Elevation: 0 ft
Nearby Weather Stations

Elev 0 ft 27.69 °N, 82.72 °W | Updated 11 minutes ago

Clear
Clear
82.6 °F
Feels Like 91 °F
N
4.2
Wind Variable Wind from West

Today
High -- | Low -- °F
--% Chance of Precip.
Yesterday
High -- | Low -- °F
Precip. -- in
7:10 AM 7:49 PM
Waning Gibbous, 73% visible
Pressure 29.96 in
Visibility 10.0 miles
Clouds Clear
Heat Index 91 °F
Dew Point 77 °F
Humidity 84%
Rainfall 0.00 in
Snow Depth Not available.
UV 0 out of 12
Pollen 2.70 out of 12
Air Quality Not available.
Flu Activity Not available.
METAR KSPG 030553Z AUTO 32003KT 10SM CLR 29/24 A2996 RMK AO2 SLP146 T02890244 10306 20289 58016
Pressure 29.96 in
Visibility 10.0 miles
Clouds Clear
Heat Index 91 °F
Dew Point 77 °F
Humidity 84%
Rainfall 0.00 in
Snow Depth Not available.
UV 0 out of 12
Pollen 2.70 out of 12
Air Quality Not available.
Flu Activity Not available.
METAR KSPG 030553Z AUTO 32003KT 10SM CLR 29/24 A2996 RMK AO2 SLP146 T02890244 10306 20289 58016

10-Day Weather Forecast

×

Almanac

Astronomy

Sep. 03, 2015 Rise Set
Actual Time
Civil Twilight
Nautical Twilight
Astronomical Twilight
Moon
Length of Visible Light
Length of Day
Tomorrow will be .
, % of the Moon is Illuminated

Today's Extremes

State Highs State Lows

Community

WunderPhotos

Upload Photos

1,851,914 photos uploaded!

WunderBlogs® & News

Nearby

Air Quality

  Air Quality AQ Index Pollutant
Not available.

Snow Depth

Station Depth Elevation

Earthquake Activity

City Distance Mag. Time & Date
Minimum magnitude displayed is 2.5.

Coastal Water Temperatures

Place Temperature

Stations

Nearby Weather Stations

Station Location Temp. Windchill Dew Point Humidity Wind Precip. Elev Updated Type